Time;durP1;ratioP1;P1;durP2;ratioP2;P2;SDS_P1;SDS_P2;PMS_P1;PMS_P2;Temp;Humidity;BMP_temperature;BMP_pressure;BME280_temperature;BME280_humidity;BME280_pressure;Samples;Min_cycle;Max_cycle;Signal;HPM_P1;HPM_P2
2023/11/22 00:00:59;;;;;;;12.73;7.53;;;;;;;7.26;100.00;153225.97;4992745;28;20430;-76
2023/11/22 00:03:25;;;;;;;9.50;7.33;;;;;;;7.25;100.00;153222.13;4971134;28;20971;-76
2023/11/22 00:05:52;;;;;;;8.93;7.53;;;;;;;7.26;100.00;153225.97;4966706;28;20517;-76
2023/11/22 00:08:20;;;;;;;10.30;8.03;;;;;;;7.30;100.00;153236.34;4989321;28;20453;-76
2023/11/22 00:10:46;;;;;;;9.57;6.77;;;;;;;7.29;100.00;153232.44;4983658;28;20511;-76
2023/11/22 00:13:13;;;;;;;9.60;7.00;;;;;;;7.28;100.00;153229.88;4994292;28;20465;-76
2023/11/22 00:15:39;;;;;;;10.47;6.20;;;;;;;7.25;100.00;153223.38;4988316;28;20453;-76
2023/11/22 00:18:06;;;;;;;6.23;4.80;;;;;;;7.13;100.00;153191.09;4992543;28;20534;-76
2023/11/22 00:20:33;;;;;;;5.47;4.60;;;;;;;6.94;100.00;153143.34;4989893;28;20453;-76
2023/11/22 00:23:00;;;;;;;5.63;3.80;;;;;;;6.71;100.00;153085.28;4992580;28;20560;-76
2023/11/22 00:25:28;;;;;;;4.80;3.40;;;;;;;6.52;100.00;153034.91;4988088;28;20445;-75
2023/11/22 00:27:55;;;;;;;4.23;3.50;;;;;;;6.43;100.00;153013.03;4986405;28;20453;-76
2023/11/22 00:30:23;;;;;;;4.67;3.50;;;;;;;6.28;100.00;152972.97;4991186;28;20869;-76
2023/11/22 00:32:49;;;;;;;4.97;4.00;;;;;;;6.14;100.00;152939.44;4989364;28;20843;-76
2023/11/22 00:35:16;;;;;;;4.40;3.20;;;;;;;5.94;100.00;152887.84;4987250;28;20477;-77
2023/11/22 00:37:43;;;;;;;4.00;3.37;;;;;;;5.71;100.00;152828.47;4986426;28;20457;-76
2023/11/22 00:40:11;;;;;;;3.80;3.20;;;;;;;5.64;100.00;152810.41;4994979;28;20449;-76
2023/11/22 00:42:41;;;;;;;4.80;3.17;;;;;;;5.50;100.00;152775.63;4971219;28;20460;-76
2023/11/22 00:45:09;;;;;;;4.30;3.50;;;;;;;5.44;100.00;152760.13;4976239;28;20453;-76
2023/11/22 00:47:37;;;;;;;4.13;3.40;;;;;;;5.40;100.00;152748.56;4987383;28;20825;-76
2023/11/22 00:50:04;;;;;;;5.23;3.53;;;;;;;5.32;100.00;152727.91;4969816;28;20458;-76
2023/11/22 00:52:31;;;;;;;6.20;3.83;;;;;;;5.29;100.00;152720.19;4993011;28;20461;-76
2023/11/22 00:54:58;;;;;;;5.67;4.17;;;;;;;5.33;100.00;152730.47;4984796;28;20476;-76
2023/11/22 00:57:26;;;;;;;5.87;4.53;;;;;;;5.34;100.00;152733.06;4977202;28;20449;-76
2023/11/22 00:59:54;;;;;;;5.40;4.27;;;;;;;5.36;100.00;152739.50;4989462;28;20521;-76
2023/11/22 01:02:21;;;;;;;5.13;4.43;;;;;;;5.33;100.00;152730.47;4993029;28;20453;-77
2023/11/22 01:04:49;;;;;;;6.30;4.20;;;;;;;5.31;100.00;152725.31;4994950;28;21003;-76
2023/11/22 01:07:15;;;;;;;5.40;4.43;;;;;;;5.21;100.00;152699.56;4987047;28;20555;-76
2023/11/22 01:09:42;;;;;;;4.90;3.50;;;;;;;5.10;100.00;152671.19;4988249;28;20536;-75
2023/11/22 01:12:09;;;;;;;5.27;4.00;;;;;;;5.01;100.00;152647.97;5000582;28;20457;-76
2023/11/22 01:14:36;;;;;;;7.50;4.93;;;;;;;4.95;100.00;152632.53;4992523;28;20453;-76
2023/11/22 01:17:04;;;;;;;5.43;3.97;;;;;;;5.00;100.00;152645.41;4986481;28;20468;-76
2023/11/22 01:19:30;;;;;;;5.77;4.30;;;;;;;5.03;100.00;152653.16;4989647;28;20514;-76
2023/11/22 01:21:57;;;;;;;7.23;4.70;;;;;;;5.03;100.00;152653.16;4996244;28;20463;-76
2023/11/22 01:24:24;;;;;;;7.47;5.53;;;;;;;5.01;100.00;152647.97;4977047;28;20955;-77
2023/11/22 01:26:51;;;;;;;8.13;6.43;;;;;;;5.02;100.00;152650.56;4992213;28;20489;-76
2023/11/22 01:29:17;;;;;;;8.37;5.77;;;;;;;4.93;100.00;152629.94;4993393;28;20457;-76
2023/11/22 01:31:44;;;;;;;10.70;5.93;;;;;;;4.95;100.00;152632.53;5001006;28;21026;-76
2023/11/22 01:34:12;;;;;;;8.87;6.53;;;;;;;4.91;100.00;152624.78;4992624;28;20504;-76
2023/11/22 01:36:43;;;;;;;8.53;5.60;;;;;;;4.81;100.00;152599.03;4973396;28;20434;-77
2023/11/22 01:39:10;;;;;;;6.47;5.00;;;;;;;4.74;100.00;152580.97;4991401;28;20469;-76
2023/11/22 01:41:36;;;;;;;7.50;5.40;;;;;;;4.64;100.00;152555.19;4990525;28;20830;-76
2023/11/22 01:44:03;;;;;;;11.43;6.07;;;;;;;4.54;100.00;152529.44;4990464;28;20468;-76
2023/11/22 01:46:30;;;;;;;8.20;5.70;;;;;;;4.53;100.00;152525.53;4989737;28;20488;-76
2023/11/22 01:48:56;;;;;;;6.97;4.60;;;;;;;4.49;100.00;152516.56;4968532;28;20576;-76
2023/11/22 01:51:25;;;;;;;8.57;5.70;;;;;;;4.43;100.00;152501.09;4986850;28;20445;-76
2023/11/22 01:53:54;;;;;;;7.43;4.77;;;;;;;4.48;100.00;152512.66;4996256;28;20485;-76
2023/11/22 01:56:21;;;;;;;8.27;5.60;;;;;;;4.48;100.00;152513.97;4985617;28;20552;-76
2023/11/22 01:58:48;;;;;;;8.60;5.93;;;;;;;4.50;100.00;152517.84;4995623;28;20988;-76
2023/11/22 02:01:14;;;;;;;6.77;4.47;;;;;;;4.48;100.00;152513.97;4982257;28;20453;-76
2023/11/22 02:03:41;;;;;;;7.43;5.10;;;;;;;4.46;100.00;152508.81;4973296;28;20469;-76
2023/11/22 02:06:09;;;;;;;6.87;6.03;;;;;;;4.47;100.00;152510.13;4980985;28;20453;-76
2023/11/22 02:08:37;;;;;;;7.90;5.23;;;;;;;4.47;100.00;152510.13;4990168;28;20507;-76
2023/11/22 02:11:04;;;;;;;6.53;5.17;;;;;;;4.46;100.00;152507.53;4992241;28;20496;-76
2023/11/22 02:13:30;;;;;;;6.67;5.33;;;;;;;4.45;100.00;152506.22;4998943;28;20470;-76
2023/11/22 02:15:59;;;;;;;8.63;5.20;;;;;;;4.42;100.00;152497.25;5001324;28;20452;-76
2023/11/22 02:18:26;;;;;;;6.53;4.70;;;;;;;4.27;100.00;152459.88;4976840;28;20442;-76
2023/11/22 02:20:53;;;;;;;5.63;4.27;;;;;;;4.23;100.00;152449.59;4995741;28;20460;-76
2023/11/22 02:23:21;;;;;;;6.27;4.57;;;;;;;4.15;100.00;152428.97;4993390;28;20458;-76
2023/11/22 02:25:48;;;;;;;6.53;4.47;;;;;;;4.15;100.00;152428.97;4970679;28;20453;-76
2023/11/22 02:28:14;;;;;;;5.47;4.00;;;;;;;4.09;100.00;152413.50;4989688;28;20467;-76
2023/11/22 02:30:41;;;;;;;5.67;4.33;;;;;;;4.03;100.00;152399.34;4994590;28;20812;-76
2023/11/22 02:33:08;;;;;;;6.37;4.70;;;;;;;4.02;100.00;152395.50;4990655;28;20500;-76
2023/11/22 02:35:35;;;;;;;6.00;4.80;;;;;;;3.99;100.00;152389.06;4982819;28;20491;-77
2023/11/22 02:38:01;;;;;;;6.90;4.70;;;;;;;3.99;100.00;152387.75;4984249;28;20506;-77
2023/11/22 02:40:29;;;;;;;7.20;4.77;;;;;;;3.94;100.00;152376.19;4970252;28;20466;-76
2023/11/22 02:42:57;;;;;;;7.40;4.33;;;;;;;3.91;100.00;152367.16;4997339;28;20461;-76
2023/11/22 02:45:26;;;;;;;6.33;4.43;;;;;;;3.89;100.00;152362.00;4990876;28;20454;-76
2023/11/22 02:47:53;;;;;;;5.57;3.97;;;;;;;3.86;100.00;152354.28;4977224;28;20470;-76
2023/11/22 02:50:19;;;;;;;5.50;4.13;;;;;;;3.83;100.00;152346.56;4997635;28;20453;-76
2023/11/22 02:52:46;;;;;;;5.97;4.13;;;;;;;3.83;100.00;152347.84;4991180;28;20508;-76
2023/11/22 02:55:12;;;;;;;5.40;4.00;;;;;;;3.79;100.00;152336.22;4988589;28;20449;-76
2023/11/22 02:57:40;;;;;;;9.67;4.90;;;;;;;3.77;100.00;152332.38;4990865;28;20453;-76
2023/11/22 03:00:08;;;;;;;5.63;4.60;;;;;;;3.75;100.00;152325.94;4991814;28;20465;-76
2023/11/22 03:02:35;;;;;;;6.97;4.30;;;;;;;3.73;100.00;152320.81;4986813;28;20508;-76
2023/11/22 03:05:01;;;;;;;5.33;3.93;;;;;;;3.68;100.00;152310.50;4987134;28;20657;-76
2023/11/22 03:07:28;;;;;;;6.07;4.30;;;;;;;3.68;100.00;152310.50;4981278;28;20468;-76
2023/11/22 03:09:55;;;;;;;4.77;3.80;;;;;;;3.65;100.00;152302.75;4994279;28;20461;-76
2023/11/22 03:12:49;;;;;;;5.83;3.83;;;;;;;3.61;100.00;152292.47;4987300;28;20458;-76
2023/11/22 03:15:16;;;;;;;4.80;3.57;;;;;;;3.54;100.00;152274.47;4974509;28;20434;-76
2023/11/22 03:17:43;;;;;;;5.90;4.10;;;;;;;3.52;100.00;152269.28;5010051;28;20450;-76
2023/11/22 03:20:11;;;;;;;6.50;4.10;;;;;;;3.51;100.00;152266.75;4977583;28;20532;-76
2023/11/22 03:22:38;;;;;;;6.70;4.60;;;;;;;3.44;100.00;152247.44;4991706;28;20456;-76
2023/11/22 03:25:05;;;;;;;5.20;4.13;;;;;;;3.40;100.00;152238.41;4991973;28;20447;-77
2023/11/22 03:27:31;;;;;;;6.03;3.97;;;;;;;3.37;100.00;152230.69;4995547;28;20452;-76
2023/11/22 03:30:00;;;;;;;6.00;3.97;;;;;;;3.27;100.00;152203.66;4989402;28;20684;-76
2023/11/22 03:32:28;;;;;;;5.67;3.73;;;;;;;3.29;100.00;152208.81;4995999;28;20464;-77
2023/11/22 03:34:55;;;;;;;5.10;4.03;;;;;;;3.20;100.00;152185.66;4997955;28;21034;-76
2023/11/22 03:37:22;;;;;;;6.77;4.20;;;;;;;3.01;100.00;152139.34;4976912;28;20543;-76
2023/11/22 03:39:49;;;;;;;5.13;3.20;;;;;;;2.93;100.00;152117.47;4987073;28;20472;-76
2023/11/22 03:42:16;;;;;;;6.90;3.70;;;;;;;2.94;100.00;152120.00;4987486;28;20485;-75
2023/11/22 03:44:45;;;;;;;4.10;3.40;;;;;;;2.81;100.00;152087.84;4999599;28;20495;-76
2023/11/22 03:47:13;;;;;;;5.30;3.80;;;;;;;2.77;100.00;152076.28;4985551;28;20990;-76
2023/11/22 03:49:40;;;;;;;7.27;3.90;;;;;;;2.78;100.00;152078.88;4988617;28;20663;-76
2023/11/22 03:52:08;;;;;;;4.93;3.20;;;;;;;2.79;100.00;152081.44;4974235;28;20454;-76
2023/11/22 03:54:35;;;;;;;5.27;3.53;;;;;;;2.81;100.00;152086.56;4990276;28;21066;-76
2023/11/22 03:57:01;;;;;;;5.40;3.80;;;;;;;2.82;100.00;152089.16;4989937;28;20461;-76
2023/11/22 03:59:28;;;;;;;5.50;4.37;;;;;;;2.84;100.00;152095.59;4990281;28;20501;-76
2023/11/22 04:01:54;;;;;;;4.63;3.63;;;;;;;2.84;100.00;152094.28;4993239;28;20495;-76
2023/11/22 04:04:22;;;;;;;6.73;3.57;;;;;;;2.82;100.00;152089.16;4991472;28;20519;-76
2023/11/22 04:06:50;;;;;;;6.43;4.27;;;;;;;2.81;100.00;152086.56;4995977;28;20968;-76
2023/11/22 04:09:17;;;;;;;5.07;3.83;;;;;;;2.82;100.00;152089.16;4986222;28;20460;-76
2023/11/22 04:11:43;;;;;;;5.90;3.80;;;;;;;2.83;100.00;152091.75;4991122;28;20473;-76
2023/11/22 04:14:10;;;;;;;4.97;3.43;;;;;;;2.78;100.00;152078.88;4992555;28;20445;-76
2023/11/22 04:16:37;;;;;;;6.23;3.90;;;;;;;2.80;100.00;152085.31;4973830;28;21016;-77
2023/11/22 04:19:03;;;;;;;4.80;3.50;;;;;;;2.80;100.00;152084.03;4980645;28;20456;-77
2023/11/22 04:21:31;;;;;;;6.40;3.80;;;;;;;2.79;100.00;152082.72;4964983;28;20467;-77
2023/11/22 04:23:57;;;;;;;5.33;4.10;;;;;;;2.78;100.00;152078.88;4997649;28;20453;-77
2023/11/22 04:26:24;;;;;;;6.10;3.93;;;;;;;2.78;100.00;152078.88;4994850;28;20496;-76
2023/11/22 04:28:51;;;;;;;5.00;3.83;;;;;;;2.82;100.00;152090.44;4990141;28;20461;-76
2023/11/22 04:31:17;;;;;;;7.80;4.97;;;;;;;2.80;100.00;152085.31;4999810;28;20457;-76
2023/11/22 04:33:43;;;;;;;7.20;4.43;;;;;;;2.80;100.00;152084.03;5003236;28;20452;-76
2023/11/22 04:36:10;;;;;;;6.00;4.10;;;;;;;2.79;100.00;152081.44;4988850;28;20442;-76
2023/11/22 04:38:37;;;;;;;6.37;4.00;;;;;;;2.77;100.00;152076.28;4990551;28;20211;-76
2023/11/22 04:41:04;;;;;;;5.77;4.00;;;;;;;2.79;100.00;152081.44;4991747;28;20475;-76
2023/11/22 04:43:31;;;;;;;5.40;4.00;;;;;;;2.81;100.00;152086.56;4997215;28;20452;-77
2023/11/22 04:45:57;;;;;;;6.17;4.20;;;;;;;2.80;100.00;152084.03;5004543;28;20444;-76
2023/11/22 04:48:24;;;;;;;7.43;4.33;;;;;;;2.78;100.00;152078.88;4990435;28;20450;-76
2023/11/22 04:50:50;;;;;;;6.03;4.20;;;;;;;2.78;100.00;152078.88;4981812;28;20504;-76
2023/11/22 04:53:17;;;;;;;9.03;4.70;;;;;;;2.76;100.00;152073.72;4991147;28;20481;-76
2023/11/22 04:55:45;;;;;;;6.20;3.70;;;;;;;2.74;100.00;152068.56;4989083;28;21013;-76
2023/11/22 04:58:11;;;;;;;5.13;3.53;;;;;;;2.73;100.00;152065.97;4990632;28;20472;-76
2023/11/22 05:00:38;;;;;;;5.50;3.57;;;;;;;2.72;100.00;152063.44;4987850;28;20485;-76
2023/11/22 05:03:04;;;;;;;4.93;4.43;;;;;;;2.73;100.00;152065.97;4972787;28;20465;-76
2023/11/22 05:05:31;;;;;;;5.53;3.60;;;;;;;2.72;100.00;152063.44;4989717;28;20461;-77
2023/11/22 05:07:57;;;;;;;5.70;3.80;;;;;;;2.73;100.00;152065.97;4987176;28;20903;-76
2023/11/22 05:10:24;;;;;;;4.50;3.23;;;;;;;2.73;100.00;152067.28;4990010;28;20505;-76
2023/11/22 05:12:52;;;;;;;5.67;3.80;;;;;;;2.67;100.00;152050.56;5000472;28;20445;-76
2023/11/22 05:15:18;;;;;;;3.90;2.50;;;;;;;2.69;100.00;152057.00;4989432;28;20464;-76
2023/11/22 05:17:45;;;;;;;4.73;3.27;;;;;;;2.67;100.00;152050.56;4997481;28;20499;-76
2023/11/22 05:20:12;;;;;;;5.80;3.97;;;;;;;2.65;100.00;152046.69;4991296;28;20550;-76
2023/11/22 05:22:38;;;;;;;5.40;3.40;;;;;;;2.65;100.00;152045.44;4992504;28;20453;-76
2023/11/22 05:25:06;;;;;;;5.80;3.97;;;;;;;2.68;100.00;152053.13;4987501;28;20987;-76
2023/11/22 05:27:33;;;;;;;5.17;3.57;;;;;;;2.67;100.00;152051.88;4980913;28;20876;-76
2023/11/22 05:30:01;;;;;;;4.17;2.93;;;;;;;2.66;100.00;152048.00;4988610;28;21623;-76
2023/11/22 05:32:28;;;;;;;5.33;3.70;;;;;;;2.63;100.00;152040.25;4986255;28;20453;-75
2023/11/22 05:34:55;;;;;;;4.07;3.20;;;;;;;2.64;100.00;152042.84;4990206;28;20445;-76
2023/11/22 05:37:21;;;;;;;5.13;3.87;;;;;;;2.64;100.00;152042.84;4964920;28;20461;-76
2023/11/22 05:39:48;;;;;;;5.60;3.70;;;;;;;2.65;100.00;152046.69;4983107;28;20484;-76
2023/11/22 05:42:14;;;;;;;4.90;3.80;;;;;;;2.67;100.00;152051.88;4972987;28;20455;-76
2023/11/22 05:44:41;;;;;;;4.57;3.50;;;;;;;2.65;100.00;152045.44;4993550;28;20964;-76
2023/11/22 05:47:09;;;;;;;4.90;4.10;;;;;;;2.65;100.00;152046.69;4990839;28;20472;-76
2023/11/22 05:49:35;;;;;;;4.93;3.77;;;;;;;2.68;100.00;152053.13;4987133;28;20469;-76
2023/11/22 05:52:02;;;;;;;4.23;3.20;;;;;;;2.65;100.00;152045.44;4984770;28;20461;-76
2023/11/22 05:54:29;;;;;;;5.80;3.87;;;;;;;2.63;100.00;152040.25;4981816;28;20513;-75
2023/11/22 05:56:57;;;;;;;5.13;3.60;;;;;;;2.60;100.00;152033.84;4988631;28;20477;-76
2023/11/22 05:59:24;;;;;;;5.97;4.00;;;;;;;2.61;100.00;152035.13;4990383;28;20461;-77
2023/11/22 06:01:50;;;;;;;5.63;3.80;;;;;;;2.60;100.00;152032.53;4991567;28;20944;-75
2023/11/22 06:04:18;;;;;;;4.90;3.90;;;;;;;2.60;100.00;152033.84;4993251;28;20461;-77
2023/11/22 06:06:46;;;;;;;5.70;3.47;;;;;;;2.60;100.00;152033.84;4996605;28;20448;-75
2023/11/22 06:09:14;;;;;;;6.53;4.37;;;;;;;2.64;100.00;152042.84;4993396;28;20572;-75
2023/11/22 06:11:41;;;;;;;5.53;4.20;;;;;;;2.63;100.00;152041.56;4992948;28;20562;-76
2023/11/22 06:14:07;;;;;;;7.30;4.70;;;;;;;2.64;100.00;152042.84;4988781;28;20526;-76
2023/11/22 06:16:34;;;;;;;5.10;3.90;;;;;;;2.65;100.00;152045.44;4992113;28;20457;-76
2023/11/22 06:19:00;;;;;;;6.40;3.80;;;;;;;2.70;100.00;152058.31;4992116;28;20461;-76
2023/11/22 06:21:28;;;;;;;5.73;4.17;;;;;;;2.74;100.00;152068.56;4995115;28;20861;-76
2023/11/22 06:23:57;;;;;;;6.23;4.10;;;;;;;2.77;100.00;152076.28;4993071;28;20464;-76
2023/11/22 06:26:24;;;;;;;5.17;3.70;;;;;;;2.77;100.00;152077.59;4995876;28;20516;-75
2023/11/22 06:28:51;;;;;;;6.50;4.50;;;;;;;2.76;100.00;152073.72;4996418;28;20457;-75
2023/11/22 06:31:17;;;;;;;7.67;4.40;;;;;;;2.75;100.00;152072.47;4994321;28;20453;-76
2023/11/22 06:33:44;;;;;;;5.37;3.80;;;;;;;2.72;100.00;152063.44;4993417;28;20625;-75
2023/11/22 06:36:13;;;;;;;6.80;4.50;;;;;;;2.71;100.00;152060.84;4995728;28;20547;-75
2023/11/22 06:38:41;;;;;;;7.00;3.97;;;;;;;2.69;100.00;152057.00;4993522;28;20871;-75
2023/11/22 06:41:07;;;;;;;4.73;3.73;;;;;;;2.70;100.00;152059.56;4992949;28;20465;-76
2023/11/22 06:43:34;;;;;;;5.60;4.37;;;;;;;2.72;100.00;152064.75;4990854;28;20554;-75
2023/11/22 06:46:00;;;;;;;5.00;4.27;;;;;;;2.71;100.00;152060.84;4994219;28;20454;-76
2023/11/22 06:48:27;;;;;;;4.43;3.40;;;;;;;2.71;100.00;152062.16;4995253;28;20795;-76
2023/11/22 06:50:53;;;;;;;6.37;4.20;;;;;;;2.68;100.00;152053.13;4992930;28;20441;-77
2023/11/22 06:53:20;;;;;;;5.83;4.17;;;;;;;2.69;100.00;152057.00;4995636;28;20485;-76
2023/11/22 06:55:48;;;;;;;5.50;4.03;;;;;;;2.70;100.00;152059.56;4997938;28;20452;-76
2023/11/22 06:58:16;;;;;;;5.87;3.60;;;;;;;2.73;100.00;152065.97;4998921;28;20452;-76
2023/11/22 07:00:43;;;;;;;5.27;3.10;;;;;;;2.73;100.00;152067.28;4993865;28;20515;-77
2023/11/22 07:03:10;;;;;;;4.20;3.27;;;;;;;2.71;100.00;152062.16;4961048;28;20469;-76
2023/11/22 07:05:37;;;;;;;5.97;3.57;;;;;;;2.72;100.00;152063.44;4991162;28;20891;-76
2023/11/22 07:08:04;;;;;;;6.00;4.17;;;;;;;2.70;100.00;152058.31;4992914;28;20552;-77
2023/11/22 07:10:33;;;;;;;4.00;3.20;;;;;;;2.65;100.00;152046.69;4975611;28;20454;-75
2023/11/22 07:13:02;;;;;;;5.30;3.57;;;;;;;2.67;100.00;152051.88;4995686;28;20472;-75
2023/11/22 07:15:29;;;;;;;5.20;3.37;;;;;;;2.64;100.00;152042.84;4995112;28;20465;-76
2023/11/22 07:17:55;;;;;;;5.07;3.60;;;;;;;2.60;100.00;152032.53;4987783;28;21017;-75
2023/11/22 07:20:23;;;;;;;4.10;3.10;;;;;;;2.55;100.00;152019.69;4994431;28;20534;-75
2023/11/22 07:22:54;;;;;;;5.90;3.70;;;;;;;2.49;100.00;152005.53;4985698;28;20461;-75
2023/11/22 07:25:24;;;;;;;4.73;3.00;;;;;;;2.49;100.00;152004.28;4990790;28;20476;-77
2023/11/22 07:27:53;;;;;;;4.40;3.30;;;;;;;2.45;100.00;151996.56;4988770;28;20452;-76
2023/11/22 07:30:22;;;;;;;5.00;3.27;;;;;;;2.44;100.00;151993.97;4992637;28;20453;-76
2023/11/22 07:32:50;;;;;;;4.57;2.97;;;;;;;2.45;100.00;151995.28;4993064;28;20460;-76
2023/11/22 07:35:19;;;;;;;4.50;3.23;;;;;;;2.44;100.00;151992.69;4978216;28;20596;-77
2023/11/22 07:37:47;;;;;;;6.67;3.67;;;;;;;2.45;100.00;151996.56;4986328;28;20968;-77
2023/11/22 07:40:14;;;;;;;4.63;3.07;;;;;;;2.46;100.00;151997.84;4990189;28;20472;-76
2023/11/22 07:42:41;;;;;;;3.70;3.03;;;;;;;2.43;100.00;151991.44;4978072;28;20460;-77
2023/11/22 07:45:11;;;;;;;5.33;3.90;;;;;;;2.40;100.00;151983.72;4995239;28;21069;-76
2023/11/22 07:47:41;;;;;;;3.80;3.10;;;;;;;2.39;100.00;151981.13;4995061;28;20458;-76
2023/11/22 07:50:09;;;;;;;5.23;3.70;;;;;;;2.39;100.00;151979.81;4990567;28;20485;-76
2023/11/22 07:52:36;;;;;;;4.10;2.93;;;;;;;2.40;100.00;151982.41;4996361;28;20796;-76
2023/11/22 07:55:03;;;;;;;3.70;3.10;;;;;;;2.37;100.00;151976.00;4991462;28;20469;-76
2023/11/22 07:57:29;;;;;;;3.47;2.63;;;;;;;2.36;100.00;151973.41;4983760;28;20805;-76
2023/11/22 07:59:56;;;;;;;4.03;3.30;;;;;;;2.36;100.00;151973.41;4993896;28;20461;-76
2023/11/22 08:02:23;;;;;;;5.53;3.20;;;;;;;2.35;100.00;151970.84;4998061;28;20456;-76
2023/11/22 08:04:52;;;;;;;4.47;3.20;;;;;;;2.34;100.00;151968.25;4989855;28;20456;-76
2023/11/22 08:07:21;;;;;;;5.20;3.10;;;;;;;2.28;100.00;151952.81;4996714;28;20476;-75
2023/11/22 08:09:48;;;;;;;4.53;3.23;;;;;;;2.24;100.00;151942.56;4993045;28;20440;-75
2023/11/22 08:12:15;;;;;;;5.07;2.87;;;;;;;2.20;100.00;151930.94;4993530;28;20571;-76
2023/11/22 08:14:44;;;;;;;6.20;3.57;;;;;;;2.19;100.00;151928.41;4995179;28;20457;-75
2023/11/22 08:17:13;;;;;;;3.63;2.93;;;;;;;2.16;100.00;151921.97;4993961;28;20462;-76
2023/11/22 08:19:41;;;;;;;6.27;3.20;;;;;;;2.07;100.00;151898.81;4994870;28;20476;-76
2023/11/22 08:22:09;;;;;;;4.90;3.30;;;;;;;2.06;100.00;151896.28;4995688;28;20499;-76
2023/11/22 08:24:36;;;;;;;3.93;2.90;;;;;;;2.05;100.00;151893.69;4977871;28;20822;-75
2023/11/22 08:27:03;;;;;;;5.20;3.20;;;;;;;2.03;100.00;151887.25;4992709;28;20473;-75
2023/11/22 08:29:29;;;;;;;6.60;3.57;;;;;;;1.97;100.00;151873.13;4995398;28;20484;-75
2023/11/22 08:31:56;;;;;;;4.00;2.73;;;;;;;1.95;100.00;151866.69;4994705;28;20484;-77
2023/11/22 08:34:23;;;;;;;4.97;3.90;;;;;;;1.91;100.00;151857.69;4995873;28;20452;-77
2023/11/22 08:36:49;;;;;;;4.93;3.33;;;;;;;1.93;100.00;151861.56;4994699;28;20449;-75
2023/11/22 08:39:17;;;;;;;5.43;3.80;;;;;;;1.95;100.00;151866.69;4985173;28;20454;-77
2023/11/22 08:41:44;;;;;;;4.37;3.47;;;;;;;1.93;100.00;151862.88;4997293;28;20530;-78
2023/11/22 08:44:10;;;;;;;4.60;3.20;;;;;;;1.91;100.00;151857.69;4995576;28;20461;-77
2023/11/22 08:46:37;;;;;;;4.17;3.13;;;;;;;1.90;100.00;151853.84;4981019;28;20510;-77
2023/11/22 08:49:03;;;;;;;4.00;3.23;;;;;;;1.93;100.00;151861.56;4995249;28;20455;-77
2023/11/22 08:51:30;;;;;;;5.33;3.70;;;;;;;1.95;100.00;151866.69;4994495;28;21289;-77
2023/11/22 08:53:56;;;;;;;4.10;3.10;;;;;;;1.96;100.00;151870.53;4994903;28;20481;-76
2023/11/22 08:56:24;;;;;;;5.10;3.70;;;;;;;1.92;100.00;151860.28;4993595;28;20457;-77
2023/11/22 08:58:51;;;;;;;5.10;3.53;;;;;;;1.96;100.00;151870.53;4994768;28;20820;-77
2023/11/22 09:01:18;;;;;;;4.30;3.23;;;;;;;1.94;100.00;151865.41;4993931;28;20508;-77
2023/11/22 09:03:45;;;;;;;5.50;3.77;;;;;;;1.95;100.00;151868.00;4996261;28;20546;-76
2023/11/22 09:06:11;;;;;;;4.73;3.20;;;;;;;1.95;100.00;151868.00;4993147;28;20534;-76
2023/11/22 09:08:38;;;;;;;5.20;3.60;;;;;;;2.00;100.00;151880.84;4994160;28;20801;-77
2023/11/22 09:11:06;;;;;;;5.20;3.63;;;;;;;1.99;100.00;151876.97;4996180;28;20960;-78
2023/11/22 09:13:34;;;;;;;5.50;3.30;;;;;;;1.96;100.00;151870.53;4998948;28;20580;-76
2023/11/22 09:16:01;;;;;;;4.63;3.43;;;;;;;1.96;100.00;151869.28;4998172;28;20452;-76
2023/11/22 09:18:30;;;;;;;5.70;3.47;;;;;;;1.97;100.00;151873.13;5000861;28;20805;-76
2023/11/22 09:20:57;;;;;;;6.57;4.13;;;;;;;1.98;100.00;151875.72;4994157;28;20488;-76
2023/11/22 09:23:26;;;;;;;4.67;3.63;;;;;;;2.03;100.00;151888.56;4996111;28;20817;-76
2023/11/22 09:25:52;;;;;;;5.97;3.90;;;;;;;2.03;100.00;151887.25;4998666;28;20481;-77
2023/11/22 09:28:19;;;;;;;4.50;3.50;;;;;;;2.00;100.00;151880.84;4997432;28;20452;-76
2023/11/22 09:30:48;;;;;;;5.10;3.57;;;;;;;2.07;100.00;151897.53;4998318;28;20444;-76
2023/11/22 09:33:15;;;;;;;5.70;4.30;;;;;;;2.10;100.00;151906.53;4999960;28;20464;-74
2023/11/22 09:35:44;;;;;;;4.97;3.33;;;;;;;2.11;100.00;151907.84;4997193;28;20468;-76
2023/11/22 09:38:12;;;;;;;5.50;3.90;;;;;;;2.14;100.00;151916.84;4994626;28;20993;-76
2023/11/22 09:40:41;;;;;;;5.30;3.23;;;;;;;2.12;100.00;151911.69;4949795;28;20519;-76
2023/11/22 09:43:08;;;;;;;5.53;3.50;;;;;;;2.10;100.00;151905.25;4981719;28;20520;-76
2023/11/22 09:45:35;;;;;;;5.90;3.77;;;;;;;2.10;100.00;151905.25;4995070;28;20527;-76
2023/11/22 09:48:06;;;;;;;6.77;4.17;;;;;;;2.08;100.00;151901.41;4996900;28;20976;-76
2023/11/22 09:50:40;;;;;;;6.00;4.27;;;;;;;2.11;100.00;151909.13;4998007;28;20504;-76
2023/11/22 09:53:11;;;;;;;6.93;3.50;;;;;;;2.12;100.00;151911.69;4991386;28;20491;-76
2023/11/22 09:55:38;;;;;;;5.60;3.83;;;;;;;2.14;100.00;151916.84;4992387;28;20450;-76
2023/11/22 09:58:43;;;;;;;5.10;3.80;;;;;;;2.16;100.00;151921.97;4996471;28;20960;-76
2023/11/22 10:01:13;;;;;;;7.90;4.07;;;;;;;2.16;100.00;151921.97;5002823;28;20483;-76
2023/11/22 10:03:41;;;;;;;5.63;4.17;;;;;;;2.16;100.00;151921.97;4996052;28;20446;-76
2023/11/22 10:06:08;;;;;;;7.27;4.70;;;;;;;2.11;100.00;151909.13;4999559;28;20475;-76
2023/11/22 10:08:35;;;;;;;7.07;4.23;;;;;;;2.06;100.00;151895.00;4999192;28;21288;-76
2023/11/22 10:11:03;;;;;;;6.07;4.10;;;;;;;2.04;100.00;151891.09;4992318;28;20551;-76
2023/11/22 10:13:29;;;;;;;6.47;4.30;;;;;;;2.00;100.00;151880.84;4999966;28;20467;-76
2023/11/22 10:15:56;;;;;;;5.13;4.10;;;;;;;1.99;100.00;151878.25;4997015;28;20458;-77
2023/11/22 10:18:24;;;;;;;5.80;3.90;;;;;;;2.10;100.00;151906.53;4986001;28;20457;-75
2023/11/22 10:20:52;;;;;;;4.63;4.13;;;;;;;2.12;100.00;151910.44;4998953;28;20459;-75
2023/11/22 10:23:24;;;;;;;6.10;4.40;;;;;;;2.15;100.00;151918.09;4998253;28;20465;-75
2023/11/22 10:25:55;;;;;;;4.70;3.80;;;;;;;2.20;100.00;151930.94;5000026;28;20448;-76
2023/11/22 10:28:23;;;;;;;6.83;4.43;;;;;;;2.24;100.00;151941.25;4995592;28;20786;-75
2023/11/22 10:30:51;;;;;;;6.17;4.40;;;;;;;2.25;100.00;151945.09;4998666;28;20559;-75
2023/11/22 10:33:19;;;;;;;10.00;4.60;;;;;;;2.26;100.00;151947.69;4985410;28;20460;-75
2023/11/22 10:35:46;;;;;;;7.17;4.60;;;;;;;2.22;100.00;151937.44;4998040;28;20440;-75
2023/11/22 10:38:16;;;;;;;5.90;4.00;;;;;;;2.21;100.00;151933.53;4995839;28;20464;-76
2023/11/22 10:40:45;;;;;;;6.53;4.40;;;;;;;2.24;100.00;151941.25;5001482;28;20802;-75
2023/11/22 10:43:12;;;;;;;6.43;4.97;;;;;;;2.26;100.00;151947.69;5000580;28;20823;-76
2023/11/22 10:45:40;;;;;;;6.13;4.07;;;;;;;2.27;100.00;151948.97;4983892;28;21135;-76
2023/11/22 10:48:09;;;;;;;6.40;4.80;;;;;;;2.32;100.00;151963.13;4994918;28;20882;-76
2023/11/22 10:50:37;;;;;;;7.37;5.07;;;;;;;2.29;100.00;151955.41;4995589;28;20807;-75
2023/11/22 10:53:06;;;;;;;8.53;4.90;;;;;;;2.31;100.00;151960.53;4970432;28;20479;-75
2023/11/22 10:55:34;;;;;;;7.20;5.40;;;;;;;2.35;100.00;151970.84;4995596;28;20490;-75
2023/11/22 10:58:03;;;;;;;7.20;5.83;;;;;;;2.36;100.00;151972.09;4997437;28;20461;-75
2023/11/22 11:00:32;;;;;;;6.80;5.67;;;;;;;2.35;100.00;151969.56;4994518;28;20450;-76
2023/11/22 11:03:01;;;;;;;7.23;5.17;;;;;;;2.36;100.00;151973.41;4994304;28;20567;-75
2023/11/22 11:05:30;;;;;;;7.07;5.37;;;;;;;2.34;100.00;151968.25;4993265;28;20445;-76
2023/11/22 11:08:01;;;;;;;7.03;5.00;;;;;;;2.41;100.00;151986.25;4993863;28;20830;-75
2023/11/22 11:10:29;;;;;;;7.33;5.00;;;;;;;2.42;100.00;151988.84;4992666;28;20450;-75
2023/11/22 11:12:57;;;;;;;6.37;4.47;;;;;;;2.37;100.00;151976.00;4992901;28;20457;-75
2023/11/22 11:15:24;;;;;;;5.57;4.37;;;;;;;2.36;100.00;151973.41;4993870;28;20456;-75
2023/11/22 11:17:51;;;;;;;8.00;6.10;;;;;;;2.38;100.00;151978.53;4996325;28;20453;-74
2023/11/22 11:20:19;;;;;;;6.77;5.67;;;;;;;2.44;100.00;151992.69;4996034;28;20463;-77
2023/11/22 11:22:48;;;;;;;10.37;5.87;;;;;;;2.50;100.00;152008.13;4996535;28;20886;-76
2023/11/22 11:25:16;;;;;;;7.77;6.07;;;;;;;2.53;100.00;152014.56;4993733;28;20451;-77